sensor_id;sensor_type;location;lat;lon;timestamp;P1;durP1;ratioP1;P2;durP2;ratioP2
982;SDS011;480;48.124;11.578;2023-05-07T00:01:39;7.30;;;6.33;;
982;SDS011;480;48.124;11.578;2023-05-07T00:04:06;7.30;;;6.60;;
982;SDS011;480;48.124;11.578;2023-05-07T00:06:33;6.70;;;6.10;;
982;SDS011;480;48.124;11.578;2023-05-07T00:09:00;9.30;;;8.10;;
982;SDS011;480;48.124;11.578;2023-05-07T00:11:28;9.20;;;7.93;;
982;SDS011;480;48.124;11.578;2023-05-07T00:13:55;7.80;;;7.10;;
982;SDS011;480;48.124;11.578;2023-05-07T00:16:23;8.20;;;7.40;;
982;SDS011;480;48.124;11.578;2023-05-07T00:18:50;10.20;;;8.87;;
982;SDS011;480;48.124;11.578;2023-05-07T00:21:18;9.47;;;7.97;;
982;SDS011;480;48.124;11.578;2023-05-07T00:23:46;7.10;;;6.60;;
982;SDS011;480;48.124;11.578;2023-05-07T00:26:13;6.90;;;6.30;;
982;SDS011;480;48.124;11.578;2023-05-07T00:28:40;8.37;;;7.60;;
982;SDS011;480;48.124;11.578;2023-05-07T00:31:07;7.07;;;6.37;;
982;SDS011;480;48.124;11.578;2023-05-07T00:33:37;8.20;;;7.03;;
982;SDS011;480;48.124;11.578;2023-05-07T00:36:04;6.53;;;5.93;;
982;SDS011;480;48.124;11.578;2023-05-07T00:38:31;6.03;;;5.63;;
982;SDS011;480;48.124;11.578;2023-05-07T00:40:58;6.33;;;5.83;;
982;SDS011;480;48.124;11.578;2023-05-07T00:43:25;7.73;;;6.90;;
982;SDS011;480;48.124;11.578;2023-05-07T00:45:53;8.63;;;7.83;;
982;SDS011;480;48.124;11.578;2023-05-07T00:48:20;6.70;;;6.10;;
982;SDS011;480;48.124;11.578;2023-05-07T00:50:50;8.20;;;7.47;;
982;SDS011;480;48.124;11.578;2023-05-07T00:53:18;7.93;;;6.63;;
982;SDS011;480;48.124;11.578;2023-05-07T00:55:45;6.77;;;6.20;;
982;SDS011;480;48.124;11.578;2023-05-07T00:58:12;7.00;;;5.73;;
982;SDS011;480;48.124;11.578;2023-05-07T01:00:40;6.70;;;6.10;;
982;SDS011;480;48.124;11.578;2023-05-07T01:03:07;6.13;;;5.63;;
982;SDS011;480;48.124;11.578;2023-05-07T01:05:34;6.70;;;6.20;;
982;SDS011;480;48.124;11.578;2023-05-07T01:08:03;6.57;;;5.73;;
982;SDS011;480;48.124;11.578;2023-05-07T01:10:31;6.97;;;6.27;;
982;SDS011;480;48.124;11.578;2023-05-07T01:12:58;6.37;;;5.80;;
982;SDS011;480;48.124;11.578;2023-05-07T01:15:25;6.60;;;6.10;;
982;SDS011;480;48.124;11.578;2023-05-07T01:17:53;6.53;;;5.93;;
982;SDS011;480;48.124;11.578;2023-05-07T01:20:20;6.33;;;5.80;;
982;SDS011;480;48.124;11.578;2023-05-07T01:22:48;7.90;;;6.00;;
982;SDS011;480;48.124;11.578;2023-05-07T01:25:16;8.93;;;7.13;;
982;SDS011;480;48.124;11.578;2023-05-07T01:27:44;8.30;;;6.43;;
982;SDS011;480;48.124;11.578;2023-05-07T01:30:11;7.47;;;6.77;;
982;SDS011;480;48.124;11.578;2023-05-07T01:32:40;7.30;;;6.57;;
982;SDS011;480;48.124;11.578;2023-05-07T01:35:11;5.97;;;5.57;;
982;SDS011;480;48.124;11.578;2023-05-07T01:37:42;5.73;;;5.23;;
982;SDS011;480;48.124;11.578;2023-05-07T01:40:10;6.53;;;5.80;;
982;SDS011;480;48.124;11.578;2023-05-07T01:42:38;6.83;;;6.23;;
982;SDS011;480;48.124;11.578;2023-05-07T01:45:06;7.00;;;6.20;;
982;SDS011;480;48.124;11.578;2023-05-07T01:47:33;5.87;;;5.40;;
982;SDS011;480;48.124;11.578;2023-05-07T01:50:02;6.27;;;5.67;;
982;SDS011;480;48.124;11.578;2023-05-07T01:52:30;5.53;;;5.10;;
982;SDS011;480;48.124;11.578;2023-05-07T01:54:57;6.23;;;5.77;;
982;SDS011;480;48.124;11.578;2023-05-07T01:57:26;6.27;;;5.67;;
982;SDS011;480;48.124;11.578;2023-05-07T01:59:53;6.40;;;5.90;;
982;SDS011;480;48.124;11.578;2023-05-07T02:02:20;7.90;;;6.60;;
982;SDS011;480;48.124;11.578;2023-05-07T02:04:46;7.20;;;6.30;;
982;SDS011;480;48.124;11.578;2023-05-07T02:07:13;12.30;;;6.80;;
982;SDS011;480;48.124;11.578;2023-05-07T02:09:40;7.40;;;6.80;;
982;SDS011;480;48.124;11.578;2023-05-07T02:12:07;7.60;;;6.90;;
982;SDS011;480;48.124;11.578;2023-05-07T02:14:36;7.57;;;6.90;;
982;SDS011;480;48.124;11.578;2023-05-07T02:17:03;6.97;;;6.30;;
982;SDS011;480;48.124;11.578;2023-05-07T02:19:30;6.90;;;6.13;;
982;SDS011;480;48.124;11.578;2023-05-07T02:21:57;6.80;;;6.20;;
982;SDS011;480;48.124;11.578;2023-05-07T02:24:23;6.90;;;6.30;;
982;SDS011;480;48.124;11.578;2023-05-07T02:26:50;8.03;;;5.93;;
982;SDS011;480;48.124;11.578;2023-05-07T02:29:17;8.20;;;6.67;;
982;SDS011;480;48.124;11.578;2023-05-07T02:31:46;5.90;;;5.30;;
982;SDS011;480;48.124;11.578;2023-05-07T02:34:15;5.70;;;5.23;;
982;SDS011;480;48.124;11.578;2023-05-07T02:36:42;5.97;;;5.47;;
982;SDS011;480;48.124;11.578;2023-05-07T02:39:10;6.63;;;5.97;;
982;SDS011;480;48.124;11.578;2023-05-07T02:41:37;6.07;;;5.60;;
982;SDS011;480;48.124;11.578;2023-05-07T02:44:04;6.40;;;5.80;;
982;SDS011;480;48.124;11.578;2023-05-07T02:46:31;5.67;;;5.17;;
982;SDS011;480;48.124;11.578;2023-05-07T02:49:00;5.80;;;5.40;;
982;SDS011;480;48.124;11.578;2023-05-07T02:51:27;5.77;;;5.27;;
982;SDS011;480;48.124;11.578;2023-05-07T02:53:54;6.40;;;5.90;;
982;SDS011;480;48.124;11.578;2023-05-07T02:56:21;6.43;;;5.83;;
982;SDS011;480;48.124;11.578;2023-05-07T02:58:48;6.87;;;6.20;;
982;SDS011;480;48.124;11.578;2023-05-07T03:01:15;5.37;;;4.97;;
982;SDS011;480;48.124;11.578;2023-05-07T03:03:42;6.73;;;6.13;;
982;SDS011;480;48.124;11.578;2023-05-07T03:06:10;5.27;;;4.87;;
982;SDS011;480;48.124;11.578;2023-05-07T03:08:37;5.20;;;4.80;;
982;SDS011;480;48.124;11.578;2023-05-07T03:11:04;5.77;;;5.10;;
982;SDS011;480;48.124;11.578;2023-05-07T03:13:31;4.67;;;4.27;;
982;SDS011;480;48.124;11.578;2023-05-07T03:15:58;4.63;;;4.13;;
982;SDS011;480;48.124;11.578;2023-05-07T03:18:25;5.80;;;5.03;;
982;SDS011;480;48.124;11.578;2023-05-07T03:20:52;5.40;;;4.93;;
982;SDS011;480;48.124;11.578;2023-05-07T03:23:20;4.43;;;4.13;;
982;SDS011;480;48.124;11.578;2023-05-07T03:25:47;5.37;;;4.87;;
982;SDS011;480;48.124;11.578;2023-05-07T03:28:14;4.80;;;4.40;;
982;SDS011;480;48.124;11.578;2023-05-07T03:30:41;4.20;;;3.80;;
982;SDS011;480;48.124;11.578;2023-05-07T03:33:08;4.97;;;4.40;;
982;SDS011;480;48.124;11.578;2023-05-07T03:35:35;6.80;;;5.50;;
982;SDS011;480;48.124;11.578;2023-05-07T03:38:02;7.17;;;4.03;;
982;SDS011;480;48.124;11.578;2023-05-07T03:40:31;5.47;;;5.00;;
982;SDS011;480;48.124;11.578;2023-05-07T03:42:58;5.23;;;4.83;;
982;SDS011;480;48.124;11.578;2023-05-07T03:45:26;5.80;;;5.20;;
982;SDS011;480;48.124;11.578;2023-05-07T03:47:53;10.80;;;5.30;;
982;SDS011;480;48.124;11.578;2023-05-07T03:50:20;5.67;;;4.90;;
982;SDS011;480;48.124;11.578;2023-05-07T03:52:47;5.93;;;4.47;;
982;SDS011;480;48.124;11.578;2023-05-07T03:55:14;5.60;;;5.07;;
982;SDS011;480;48.124;11.578;2023-05-07T03:57:42;4.70;;;4.30;;
982;SDS011;480;48.124;11.578;2023-05-07T04:00:10;6.73;;;4.50;;
982;SDS011;480;48.124;11.578;2023-05-07T04:02:38;4.63;;;4.33;;
982;SDS011;480;48.124;11.578;2023-05-07T04:05:05;4.73;;;4.43;;
982;SDS011;480;48.124;11.578;2023-05-07T04:07:32;5.23;;;4.73;;
982;SDS011;480;48.124;11.578;2023-05-07T04:09:59;4.23;;;3.93;;
982;SDS011;480;48.124;11.578;2023-05-07T04:12:26;4.33;;;4.03;;
982;SDS011;480;48.124;11.578;2023-05-07T04:14:54;5.00;;;4.43;;
982;SDS011;480;48.124;11.578;2023-05-07T04:17:21;4.70;;;4.30;;
982;SDS011;480;48.124;11.578;2023-05-07T04:19:48;4.67;;;4.20;;
982;SDS011;480;48.124;11.578;2023-05-07T04:22:15;4.73;;;4.33;;
982;SDS011;480;48.124;11.578;2023-05-07T04:24:42;4.40;;;4.07;;
982;SDS011;480;48.124;11.578;2023-05-07T04:27:09;4.70;;;4.30;;
982;SDS011;480;48.124;11.578;2023-05-07T04:29:36;5.13;;;4.63;;
982;SDS011;480;48.124;11.578;2023-05-07T04:32:08;6.63;;;5.60;;
982;SDS011;480;48.124;11.578;2023-05-07T04:34:35;4.57;;;4.27;;
982;SDS011;480;48.124;11.578;2023-05-07T04:37:02;5.83;;;5.27;;
982;SDS011;480;48.124;11.578;2023-05-07T04:39:29;4.80;;;4.40;;
982;SDS011;480;48.124;11.578;2023-05-07T04:41:56;4.37;;;4.07;;
982;SDS011;480;48.124;11.578;2023-05-07T04:44:23;5.10;;;4.70;;
982;SDS011;480;48.124;11.578;2023-05-07T04:46:50;5.13;;;4.73;;
982;SDS011;480;48.124;11.578;2023-05-07T04:49:18;5.00;;;4.67;;
982;SDS011;480;48.124;11.578;2023-05-07T04:51:45;4.93;;;4.63;;
982;SDS011;480;48.124;11.578;2023-05-07T04:54:12;5.30;;;4.80;;
982;SDS011;480;48.124;11.578;2023-05-07T04:56:39;6.30;;;4.93;;
982;SDS011;480;48.124;11.578;2023-05-07T04:59:06;5.17;;;4.60;;
982;SDS011;480;48.124;11.578;2023-05-07T05:01:33;5.00;;;4.60;;
982;SDS011;480;48.124;11.578;2023-05-07T05:04:00;5.20;;;4.83;;
982;SDS011;480;48.124;11.578;2023-05-07T05:06:28;5.10;;;4.70;;
982;SDS011;480;48.124;11.578;2023-05-07T05:08:55;5.30;;;4.90;;
982;SDS011;480;48.124;11.578;2023-05-07T05:11:22;5.57;;;5.07;;
982;SDS011;480;48.124;11.578;2023-05-07T05:13:49;6.10;;;5.60;;
982;SDS011;480;48.124;11.578;2023-05-07T05:16:16;5.13;;;4.70;;
982;SDS011;480;48.124;11.578;2023-05-07T05:18:43;5.57;;;5.07;;
982;SDS011;480;48.124;11.578;2023-05-07T05:21:10;5.63;;;5.13;;
982;SDS011;480;48.124;11.578;2023-05-07T05:23:38;5.40;;;5.00;;
982;SDS011;480;48.124;11.578;2023-05-07T05:26:05;4.43;;;4.13;;
982;SDS011;480;48.124;11.578;2023-05-07T05:28:33;4.70;;;4.30;;
982;SDS011;480;48.124;11.578;2023-05-07T05:31:00;4.73;;;4.33;;
982;SDS011;480;48.124;11.578;2023-05-07T05:33:27;5.30;;;4.80;;
982;SDS011;480;48.124;11.578;2023-05-07T05:35:53;5.40;;;4.90;;
982;SDS011;480;48.124;11.578;2023-05-07T05:38:20;4.10;;;3.80;;
982;SDS011;480;48.124;11.578;2023-05-07T05:40:49;4.50;;;3.97;;
982;SDS011;480;48.124;11.578;2023-05-07T05:43:16;3.40;;;3.20;;
982;SDS011;480;48.124;11.578;2023-05-07T05:45:43;4.50;;;4.20;;
982;SDS011;480;48.124;11.578;2023-05-07T05:48:10;4.00;;;3.70;;
982;SDS011;480;48.124;11.578;2023-05-07T05:50:37;4.37;;;4.07;;
982;SDS011;480;48.124;11.578;2023-05-07T05:53:04;4.43;;;3.77;;
982;SDS011;480;48.124;11.578;2023-05-07T05:55:31;4.63;;;4.23;;
982;SDS011;480;48.124;11.578;2023-05-07T05:57:59;4.60;;;4.30;;
982;SDS011;480;48.124;11.578;2023-05-07T06:00:27;4.00;;;3.63;;
982;SDS011;480;48.124;11.578;2023-05-07T06:02:54;5.43;;;4.93;;
982;SDS011;480;48.124;11.578;2023-05-07T06:05:21;4.37;;;3.80;;
982;SDS011;480;48.124;11.578;2023-05-07T06:07:48;4.27;;;3.97;;
982;SDS011;480;48.124;11.578;2023-05-07T06:10:15;4.83;;;4.43;;
982;SDS011;480;48.124;11.578;2023-05-07T06:12:42;4.30;;;4.00;;
982;SDS011;480;48.124;11.578;2023-05-07T06:15:11;5.00;;;4.60;;
982;SDS011;480;48.124;11.578;2023-05-07T06:17:38;4.90;;;4.50;;
982;SDS011;480;48.124;11.578;2023-05-07T06:20:06;4.80;;;4.40;;
982;SDS011;480;48.124;11.578;2023-05-07T06:22:33;4.70;;;4.30;;
982;SDS011;480;48.124;11.578;2023-05-07T06:25:00;4.97;;;4.47;;
982;SDS011;480;48.124;11.578;2023-05-07T06:27:27;4.47;;;4.10;;
982;SDS011;480;48.124;11.578;2023-05-07T06:29:54;4.80;;;4.37;;
982;SDS011;480;48.124;11.578;2023-05-07T06:32:23;4.97;;;4.57;;
982;SDS011;480;48.124;11.578;2023-05-07T06:34:50;4.67;;;4.13;;
982;SDS011;480;48.124;11.578;2023-05-07T06:37:17;3.87;;;3.53;;
982;SDS011;480;48.124;11.578;2023-05-07T06:39:44;3.90;;;3.60;;
982;SDS011;480;48.124;11.578;2023-05-07T06:42:11;4.17;;;3.77;;
982;SDS011;480;48.124;11.578;2023-05-07T06:44:38;4.63;;;4.17;;
982;SDS011;480;48.124;11.578;2023-05-07T06:47:05;4.37;;;3.63;;
982;SDS011;480;48.124;11.578;2023-05-07T06:49:33;3.67;;;3.37;;
982;SDS011;480;48.124;11.578;2023-05-07T06:52:00;3.40;;;3.10;;
982;SDS011;480;48.124;11.578;2023-05-07T06:54:27;4.60;;;3.90;;
982;SDS011;480;48.124;11.578;2023-05-07T06:56:55;3.30;;;3.10;;
982;SDS011;480;48.124;11.578;2023-05-07T06:59:21;3.63;;;3.33;;
982;SDS011;480;48.124;11.578;2023-05-07T07:01:49;4.50;;;4.10;;
982;SDS011;480;48.124;11.578;2023-05-07T07:04:16;4.20;;;3.70;;
982;SDS011;480;48.124;11.578;2023-05-07T07:06:44;3.67;;;3.37;;
982;SDS011;480;48.124;11.578;2023-05-07T07:09:12;4.83;;;3.80;;
982;SDS011;480;48.124;11.578;2023-05-07T07:11:39;4.50;;;3.57;;
982;SDS011;480;48.124;11.578;2023-05-07T07:14:06;4.50;;;4.13;;
982;SDS011;480;48.124;11.578;2023-05-07T07:16:33;3.70;;;3.40;;
982;SDS011;480;48.124;11.578;2023-05-07T07:19:00;4.33;;;4.03;;
982;SDS011;480;48.124;11.578;2023-05-07T07:21:27;7.23;;;4.23;;
982;SDS011;480;48.124;11.578;2023-05-07T07:23:55;4.50;;;3.53;;
982;SDS011;480;48.124;11.578;2023-05-07T07:26:22;3.70;;;3.40;;
982;SDS011;480;48.124;11.578;2023-05-07T07:28:49;3.50;;;3.07;;
982;SDS011;480;48.124;11.578;2023-05-07T07:31:16;3.37;;;3.17;;
982;SDS011;480;48.124;11.578;2023-05-07T07:33:43;3.47;;;3.27;;
982;SDS011;480;48.124;11.578;2023-05-07T07:36:10;3.93;;;3.17;;
982;SDS011;480;48.124;11.578;2023-05-07T07:38:37;3.67;;;3.40;;
982;SDS011;480;48.124;11.578;2023-05-07T07:41:07;3.37;;;3.07;;
982;SDS011;480;48.124;11.578;2023-05-07T07:43:34;3.90;;;3.57;;
982;SDS011;480;48.124;11.578;2023-05-07T07:46:01;3.67;;;3.30;;
982;SDS011;480;48.124;11.578;2023-05-07T07:48:29;2.73;;;2.50;;
982;SDS011;480;48.124;11.578;2023-05-07T07:50:56;14.20;;;4.10;;
982;SDS011;480;48.124;11.578;2023-05-07T07:53:23;3.43;;;3.23;;
982;SDS011;480;48.124;11.578;2023-05-07T07:55:50;3.43;;;3.17;;
982;SDS011;480;48.124;11.578;2023-05-07T07:58:19;3.73;;;3.20;;
982;SDS011;480;48.124;11.578;2023-05-07T08:00:47;2.70;;;2.50;;
982;SDS011;480;48.124;11.578;2023-05-07T08:03:14;3.73;;;3.30;;
982;SDS011;480;48.124;11.578;2023-05-07T08:05:41;3.13;;;2.93;;
982;SDS011;480;48.124;11.578;2023-05-07T08:08:08;4.27;;;3.30;;
982;SDS011;480;48.124;11.578;2023-05-07T08:10:35;3.43;;;3.10;;
982;SDS011;480;48.124;11.578;2023-05-07T08:13:04;4.10;;;3.70;;
982;SDS011;480;48.124;11.578;2023-05-07T08:15:32;3.57;;;3.37;;
982;SDS011;480;48.124;11.578;2023-05-07T08:18:00;3.30;;;2.83;;
982;SDS011;480;48.124;11.578;2023-05-07T08:20:28;4.30;;;4.00;;
982;SDS011;480;48.124;11.578;2023-05-07T08:22:55;7.30;;;4.23;;
982;SDS011;480;48.124;11.578;2023-05-07T08:25:22;4.83;;;3.10;;
982;SDS011;480;48.124;11.578;2023-05-07T08:27:49;2.87;;;2.67;;
982;SDS011;480;48.124;11.578;2023-05-07T08:30:16;3.60;;;3.30;;
982;SDS011;480;48.124;11.578;2023-05-07T08:32:44;4.30;;;3.90;;
982;SDS011;480;48.124;11.578;2023-05-07T08:35:11;3.63;;;3.33;;
982;SDS011;480;48.124;11.578;2023-05-07T08:37:38;3.43;;;3.13;;
982;SDS011;480;48.124;11.578;2023-05-07T08:40:06;3.73;;;3.43;;
982;SDS011;480;48.124;11.578;2023-05-07T08:42:35;5.07;;;3.53;;
982;SDS011;480;48.124;11.578;2023-05-07T08:45:03;5.03;;;3.47;;
982;SDS011;480;48.124;11.578;2023-05-07T08:47:38;3.57;;;3.37;;
982;SDS011;480;48.124;11.578;2023-05-07T08:50:11;3.20;;;3.00;;
982;SDS011;480;48.124;11.578;2023-05-07T08:52:39;3.80;;;3.37;;
982;SDS011;480;48.124;11.578;2023-05-07T08:55:07;2.90;;;2.70;;
982;SDS011;480;48.124;11.578;2023-05-07T08:57:38;3.27;;;3.07;;
982;SDS011;480;48.124;11.578;2023-05-07T09:00:07;3.33;;;3.13;;
982;SDS011;480;48.124;11.578;2023-05-07T09:02:35;3.47;;;3.20;;
982;SDS011;480;48.124;11.578;2023-05-07T09:05:03;3.30;;;3.10;;
982;SDS011;480;48.124;11.578;2023-05-07T09:07:32;3.20;;;3.00;;
982;SDS011;480;48.124;11.578;2023-05-07T09:10:01;2.60;;;2.40;;
982;SDS011;480;48.124;11.578;2023-05-07T09:12:29;2.90;;;2.70;;
982;SDS011;480;48.124;11.578;2023-05-07T09:14:56;2.83;;;2.63;;
982;SDS011;480;48.124;11.578;2023-05-07T09:17:23;3.77;;;2.83;;
982;SDS011;480;48.124;11.578;2023-05-07T09:19:50;3.03;;;2.83;;
982;SDS011;480;48.124;11.578;2023-05-07T09:22:18;3.13;;;2.63;;
982;SDS011;480;48.124;11.578;2023-05-07T09:24:48;2.80;;;2.60;;
982;SDS011;480;48.124;11.578;2023-05-07T09:27:17;3.40;;;3.10;;
982;SDS011;480;48.124;11.578;2023-05-07T09:29:44;3.03;;;2.73;;
982;SDS011;480;48.124;11.578;2023-05-07T09:32:11;2.60;;;2.37;;
982;SDS011;480;48.124;11.578;2023-05-07T09:34:38;4.00;;;3.63;;
982;SDS011;480;48.124;11.578;2023-05-07T09:37:05;3.70;;;3.40;;
982;SDS011;480;48.124;11.578;2023-05-07T09:39:39;3.67;;;2.90;;
982;SDS011;480;48.124;11.578;2023-05-07T09:42:08;3.20;;;2.20;;
982;SDS011;480;48.124;11.578;2023-05-07T09:44:36;3.20;;;2.90;;
982;SDS011;480;48.124;11.578;2023-05-07T09:47:04;2.70;;;2.10;;
982;SDS011;480;48.124;11.578;2023-05-07T09:49:33;4.03;;;2.80;;
982;SDS011;480;48.124;11.578;2023-05-07T09:52:02;3.07;;;2.30;;
982;SDS011;480;48.124;11.578;2023-05-07T09:54:31;3.77;;;3.40;;
982;SDS011;480;48.124;11.578;2023-05-07T09:57:00;3.13;;;2.67;;
982;SDS011;480;48.124;11.578;2023-05-07T09:59:30;2.10;;;1.97;;
982;SDS011;480;48.124;11.578;2023-05-07T10:01:58;2.63;;;2.27;;
982;SDS011;480;48.124;11.578;2023-05-07T10:04:27;3.67;;;2.87;;
982;SDS011;480;48.124;11.578;2023-05-07T10:06:54;3.07;;;2.70;;
982;SDS011;480;48.124;11.578;2023-05-07T10:09:21;2.50;;;2.30;;
982;SDS011;480;48.124;11.578;2023-05-07T10:11:50;2.67;;;2.47;;
982;SDS011;480;48.124;11.578;2023-05-07T10:14:17;4.10;;;3.07;;
982;SDS011;480;48.124;11.578;2023-05-07T10:16:48;2.73;;;2.53;;
982;SDS011;480;48.124;11.578;2023-05-07T10:19:15;3.20;;;2.90;;
982;SDS011;480;48.124;11.578;2023-05-07T10:21:44;2.63;;;2.43;;
982;SDS011;480;48.124;11.578;2023-05-07T10:24:16;3.27;;;2.97;;
982;SDS011;480;48.124;11.578;2023-05-07T10:26:48;2.90;;;2.57;;
982;SDS011;480;48.124;11.578;2023-05-07T10:29:18;2.50;;;2.30;;
982;SDS011;480;48.124;11.578;2023-05-07T10:32:08;3.03;;;2.67;;
982;SDS011;480;48.124;11.578;2023-05-07T10:34:47;2.90;;;2.70;;
982;SDS011;480;48.124;11.578;2023-05-07T10:37:17;3.20;;;2.23;;
982;SDS011;480;48.124;11.578;2023-05-07T10:39:44;2.50;;;2.30;;
982;SDS011;480;48.124;11.578;2023-05-07T10:42:12;3.47;;;2.60;;
982;SDS011;480;48.124;11.578;2023-05-07T10:44:40;2.60;;;2.40;;
982;SDS011;480;48.124;11.578;2023-05-07T10:47:08;3.17;;;2.87;;
982;SDS011;480;48.124;11.578;2023-05-07T10:49:37;2.87;;;2.67;;
982;SDS011;480;48.124;11.578;2023-05-07T10:52:42;2.90;;;2.70;;
982;SDS011;480;48.124;11.578;2023-05-07T10:55:19;3.20;;;2.90;;
982;SDS011;480;48.124;11.578;2023-05-07T10:57:50;2.30;;;2.17;;
982;SDS011;480;48.124;11.578;2023-05-07T11:03:11;2.47;;;2.27;;
982;SDS011;480;48.124;11.578;2023-05-07T11:05:39;2.40;;;1.93;;
982;SDS011;480;48.124;11.578;2023-05-07T11:08:07;2.67;;;2.47;;
982;SDS011;480;48.124;11.578;2023-05-07T11:10:47;4.23;;;2.80;;
982;SDS011;480;48.124;11.578;2023-05-07T11:13:15;2.13;;;2.03;;
982;SDS011;480;48.124;11.578;2023-05-07T11:15:44;2.40;;;2.03;;
982;SDS011;480;48.124;11.578;2023-05-07T11:18:14;3.07;;;2.77;;
982;SDS011;480;48.124;11.578;2023-05-07T11:20:50;2.90;;;2.60;;
982;SDS011;480;48.124;11.578;2023-05-07T11:26:41;3.30;;;3.00;;
982;SDS011;480;48.124;11.578;2023-05-07T11:29:13;3.40;;;3.10;;
982;SDS011;480;48.124;11.578;2023-05-07T11:31:41;4.17;;;3.63;;
982;SDS011;480;48.124;11.578;2023-05-07T11:34:10;3.67;;;3.37;;
982;SDS011;480;48.124;11.578;2023-05-07T11:36:41;4.87;;;3.67;;
982;SDS011;480;48.124;11.578;2023-05-07T11:39:29;3.70;;;3.27;;
982;SDS011;480;48.124;11.578;2023-05-07T11:41:58;3.97;;;3.57;;
982;SDS011;480;48.124;11.578;2023-05-07T11:44:38;3.90;;;3.40;;
982;SDS011;480;48.124;11.578;2023-05-07T11:47:10;3.70;;;3.40;;
982;SDS011;480;48.124;11.578;2023-05-07T11:49:39;3.83;;;3.53;;
982;SDS011;480;48.124;11.578;2023-05-07T11:52:06;4.60;;;3.27;;
982;SDS011;480;48.124;11.578;2023-05-07T11:54:37;3.87;;;3.47;;
982;SDS011;480;48.124;11.578;2023-05-07T11:57:04;4.20;;;3.90;;
982;SDS011;480;48.124;11.578;2023-05-07T11:59:37;3.57;;;3.27;;
982;SDS011;480;48.124;11.578;2023-05-07T12:02:06;3.60;;;3.30;;
982;SDS011;480;48.124;11.578;2023-05-07T12:04:33;5.40;;;4.20;;
982;SDS011;480;48.124;11.578;2023-05-07T12:07:02;3.53;;;3.10;;
982;SDS011;480;48.124;11.578;2023-05-07T12:09:29;3.10;;;2.90;;
982;SDS011;480;48.124;11.578;2023-05-07T12:12:02;4.10;;;3.70;;
982;SDS011;480;48.124;11.578;2023-05-07T12:14:30;4.30;;;4.00;;
982;SDS011;480;48.124;11.578;2023-05-07T12:16:57;5.43;;;4.40;;
982;SDS011;480;48.124;11.578;2023-05-07T12:19:28;4.23;;;3.83;;
982;SDS011;480;48.124;11.578;2023-05-07T12:21:55;3.03;;;2.83;;
982;SDS011;480;48.124;11.578;2023-05-07T12:24:24;3.80;;;3.50;;
982;SDS011;480;48.124;11.578;2023-05-07T12:26:51;4.00;;;3.70;;
982;SDS011;480;48.124;11.578;2023-05-07T12:29:21;3.70;;;3.40;;
982;SDS011;480;48.124;11.578;2023-05-07T12:31:49;4.27;;;3.63;;
982;SDS011;480;48.124;11.578;2023-05-07T12:34:16;4.40;;;3.10;;
982;SDS011;480;48.124;11.578;2023-05-07T12:36:43;3.80;;;3.17;;
982;SDS011;480;48.124;11.578;2023-05-07T12:39:10;4.53;;;3.40;;
982;SDS011;480;48.124;11.578;2023-05-07T12:44:34;3.80;;;3.37;;
982;SDS011;480;48.124;11.578;2023-05-07T12:47:01;3.30;;;3.00;;
982;SDS011;480;48.124;11.578;2023-05-07T12:49:29;3.53;;;2.63;;
982;SDS011;480;48.124;11.578;2023-05-07T12:51:56;3.63;;;3.33;;
982;SDS011;480;48.124;11.578;2023-05-07T12:54:29;3.17;;;2.77;;
982;SDS011;480;48.124;11.578;2023-05-07T12:57:02;3.30;;;3.00;;
982;SDS011;480;48.124;11.578;2023-05-07T12:59:32;4.37;;;2.93;;
982;SDS011;480;48.124;11.578;2023-05-07T13:02:00;2.77;;;2.30;;
982;SDS011;480;48.124;11.578;2023-05-07T13:04:27;2.90;;;2.00;;
982;SDS011;480;48.124;11.578;2023-05-07T13:06:54;3.07;;;2.57;;
982;SDS011;480;48.124;11.578;2023-05-07T13:09:21;3.17;;;2.70;;
982;SDS011;480;48.124;11.578;2023-05-07T13:11:48;3.13;;;2.93;;
982;SDS011;480;48.124;11.578;2023-05-07T13:14:15;2.57;;;2.37;;
982;SDS011;480;48.124;11.578;2023-05-07T13:16:44;2.60;;;2.40;;
982;SDS011;480;48.124;11.578;2023-05-07T13:19:11;2.03;;;1.83;;
982;SDS011;480;48.124;11.578;2023-05-07T13:21:39;2.67;;;2.43;;
982;SDS011;480;48.124;11.578;2023-05-07T13:24:06;2.80;;;2.27;;
982;SDS011;480;48.124;11.578;2023-05-07T13:26:33;5.33;;;2.10;;
982;SDS011;480;48.124;11.578;2023-05-07T13:29:00;2.43;;;2.07;;
982;SDS011;480;48.124;11.578;2023-05-07T13:31:27;3.40;;;2.37;;
982;SDS011;480;48.124;11.578;2023-05-07T13:33:56;2.47;;;2.17;;
982;SDS011;480;48.124;11.578;2023-05-07T13:36:23;2.40;;;1.90;;
982;SDS011;480;48.124;11.578;2023-05-07T13:38:50;2.00;;;1.80;;
982;SDS011;480;48.124;11.578;2023-05-07T13:41:17;2.67;;;2.10;;
982;SDS011;480;48.124;11.578;2023-05-07T13:43:45;3.40;;;2.70;;
982;SDS011;480;48.124;11.578;2023-05-07T13:46:12;3.00;;;2.47;;
982;SDS011;480;48.124;11.578;2023-05-07T13:48:39;3.60;;;3.10;;
982;SDS011;480;48.124;11.578;2023-05-07T13:51:07;5.50;;;4.50;;
982;SDS011;480;48.124;11.578;2023-05-07T13:53:34;5.20;;;4.00;;
982;SDS011;480;48.124;11.578;2023-05-07T13:56:01;5.77;;;5.07;;
982;SDS011;480;48.124;11.578;2023-05-07T13:58:29;9.13;;;8.33;;
982;SDS011;480;48.124;11.578;2023-05-07T14:00:56;6.40;;;4.97;;
982;SDS011;480;48.124;11.578;2023-05-07T14:03:23;29.80;;;28.10;;
982;SDS011;480;48.124;11.578;2023-05-07T14:05:50;491.33;;;451.40;;
982;SDS011;480;48.124;11.578;2023-05-07T14:08:19;728.07;;;604.33;;
982;SDS011;480;48.124;11.578;2023-05-07T14:10:46;1934.37;;;982.53;;
982;SDS011;480;48.124;11.578;2023-05-07T14:13:13;1999.90;;;999.90;;
982;SDS011;480;48.124;11.578;2023-05-07T14:15:40;19.97;;;18.80;;
982;SDS011;480;48.124;11.578;2023-05-07T14:18:11;18.27;;;16.87;;
982;SDS011;480;48.124;11.578;2023-05-07T14:20:38;7.47;;;6.50;;
982;SDS011;480;48.124;11.578;2023-05-07T14:23:05;7.27;;;5.63;;
982;SDS011;480;48.124;11.578;2023-05-07T14:25:33;7.13;;;6.37;;
982;SDS011;480;48.124;11.578;2023-05-07T14:28:00;7.93;;;7.13;;
982;SDS011;480;48.124;11.578;2023-05-07T14:30:27;4.90;;;3.53;;
982;SDS011;480;48.124;11.578;2023-05-07T14:32:54;3.97;;;2.77;;
982;SDS011;480;48.124;11.578;2023-05-07T14:35:21;4.20;;;3.00;;
982;SDS011;480;48.124;11.578;2023-05-07T14:37:48;3.73;;;2.73;;
982;SDS011;480;48.124;11.578;2023-05-07T14:40:15;2.90;;;2.57;;
982;SDS011;480;48.124;11.578;2023-05-07T14:42:43;3.47;;;2.60;;
982;SDS011;480;48.124;11.578;2023-05-07T14:45:10;4.10;;;3.10;;
982;SDS011;480;48.124;11.578;2023-05-07T14:47:37;4.00;;;3.07;;
982;SDS011;480;48.124;11.578;2023-05-07T14:50:05;4.20;;;2.50;;
982;SDS011;480;48.124;11.578;2023-05-07T14:52:32;3.90;;;3.10;;
982;SDS011;480;48.124;11.578;2023-05-07T14:54:59;5.27;;;3.47;;
982;SDS011;480;48.124;11.578;2023-05-07T14:57:26;3.30;;;3.00;;
982;SDS011;480;48.124;11.578;2023-05-07T14:59:55;3.80;;;3.23;;
982;SDS011;480;48.124;11.578;2023-05-07T15:02:22;4.13;;;3.03;;
982;SDS011;480;48.124;11.578;2023-05-07T15:04:49;4.33;;;3.93;;
982;SDS011;480;48.124;11.578;2023-05-07T15:07:16;2.80;;;2.60;;
982;SDS011;480;48.124;11.578;2023-05-07T15:09:43;4.00;;;3.53;;
982;SDS011;480;48.124;11.578;2023-05-07T15:12:10;4.27;;;3.20;;
982;SDS011;480;48.124;11.578;2023-05-07T15:14:37;4.40;;;2.93;;
982;SDS011;480;48.124;11.578;2023-05-07T15:17:06;3.17;;;2.87;;
982;SDS011;480;48.124;11.578;2023-05-07T15:19:33;3.30;;;2.97;;
982;SDS011;480;48.124;11.578;2023-05-07T15:22:00;4.07;;;3.67;;
982;SDS011;480;48.124;11.578;2023-05-07T15:24:27;10.00;;;3.27;;
982;SDS011;480;48.124;11.578;2023-05-07T15:26:55;4.17;;;2.90;;
982;SDS011;480;48.124;11.578;2023-05-07T15:29:23;6.90;;;3.67;;
982;SDS011;480;48.124;11.578;2023-05-07T15:31:50;3.17;;;2.90;;
982;SDS011;480;48.124;11.578;2023-05-07T15:34:19;3.60;;;3.30;;
982;SDS011;480;48.124;11.578;2023-05-07T15:36:47;3.17;;;2.87;;
982;SDS011;480;48.124;11.578;2023-05-07T15:39:14;3.17;;;2.53;;
982;SDS011;480;48.124;11.578;2023-05-07T15:41:41;3.27;;;2.33;;
982;SDS011;480;48.124;11.578;2023-05-07T15:44:08;3.70;;;3.20;;